sensor_id;sensor_type;location;lat;lon;timestamp;P1;durP1;ratioP1;P2;durP2;ratioP2
14121;SDS011;7139;48.114;11.442;2022-12-10T00:01:27;36.70;;;25.00;;
14121;SDS011;7139;48.114;11.442;2022-12-10T00:03:57;40.83;;;25.20;;
14121;SDS011;7139;48.114;11.442;2022-12-10T00:06:25;39.80;;;25.93;;
14121;SDS011;7139;48.114;11.442;2022-12-10T00:08:55;38.30;;;25.80;;
14121;SDS011;7139;48.114;11.442;2022-12-10T00:11:22;44.37;;;27.30;;
14121;SDS011;7139;48.114;11.442;2022-12-10T00:13:50;39.17;;;26.20;;
14121;SDS011;7139;48.114;11.442;2022-12-10T00:16:18;42.20;;;26.83;;
14121;SDS011;7139;48.114;11.442;2022-12-10T00:18:46;38.97;;;26.43;;
14121;SDS011;7139;48.114;11.442;2022-12-10T00:21:15;37.60;;;25.93;;
14121;SDS011;7139;48.114;11.442;2022-12-10T00:23:44;43.07;;;26.53;;
14121;SDS011;7139;48.114;11.442;2022-12-10T00:26:12;49.57;;;29.43;;
14121;SDS011;7139;48.114;11.442;2022-12-10T00:28:41;45.33;;;28.80;;
14121;SDS011;7139;48.114;11.442;2022-12-10T00:31:09;47.10;;;28.67;;
14121;SDS011;7139;48.114;11.442;2022-12-10T00:33:37;48.30;;;29.03;;
14121;SDS011;7139;48.114;11.442;2022-12-10T00:36:05;52.93;;;31.13;;
14121;SDS011;7139;48.114;11.442;2022-12-10T00:38:35;51.30;;;30.57;;
14121;SDS011;7139;48.114;11.442;2022-12-10T00:41:03;51.83;;;30.23;;
14121;SDS011;7139;48.114;11.442;2022-12-10T00:43:30;47.77;;;29.60;;
14121;SDS011;7139;48.114;11.442;2022-12-10T00:45:57;54.80;;;30.37;;
14121;SDS011;7139;48.114;11.442;2022-12-10T00:48:24;53.37;;;31.40;;
14121;SDS011;7139;48.114;11.442;2022-12-10T00:50:54;57.77;;;32.53;;
14121;SDS011;7139;48.114;11.442;2022-12-10T00:53:22;50.03;;;30.70;;
14121;SDS011;7139;48.114;11.442;2022-12-10T00:55:51;52.73;;;30.67;;
14121;SDS011;7139;48.114;11.442;2022-12-10T00:58:18;49.87;;;30.53;;
14121;SDS011;7139;48.114;11.442;2022-12-10T01:00:45;57.53;;;31.53;;
14121;SDS011;7139;48.114;11.442;2022-12-10T01:03:12;55.27;;;32.17;;
14121;SDS011;7139;48.114;11.442;2022-12-10T01:05:39;56.30;;;30.93;;
14121;SDS011;7139;48.114;11.442;2022-12-10T01:08:06;50.67;;;29.80;;
14121;SDS011;7139;48.114;11.442;2022-12-10T01:10:33;55.20;;;30.50;;
14121;SDS011;7139;48.114;11.442;2022-12-10T01:13:01;57.03;;;31.30;;
14121;SDS011;7139;48.114;11.442;2022-12-10T01:15:28;48.13;;;29.17;;
14121;SDS011;7139;48.114;11.442;2022-12-10T01:17:55;54.70;;;30.07;;
14121;SDS011;7139;48.114;11.442;2022-12-10T01:20:22;55.97;;;31.17;;
14121;SDS011;7139;48.114;11.442;2022-12-10T01:22:48;49.30;;;28.63;;
14121;SDS011;7139;48.114;11.442;2022-12-10T01:25:15;48.93;;;28.40;;
14121;SDS011;7139;48.114;11.442;2022-12-10T01:27:42;45.67;;;28.80;;
14121;SDS011;7139;48.114;11.442;2022-12-10T01:30:11;52.07;;;28.73;;
14121;SDS011;7139;48.114;11.442;2022-12-10T01:32:38;46.00;;;28.27;;
14121;SDS011;7139;48.114;11.442;2022-12-10T01:35:05;48.53;;;27.80;;
14121;SDS011;7139;48.114;11.442;2022-12-10T01:37:32;44.20;;;26.73;;
14121;SDS011;7139;48.114;11.442;2022-12-10T01:39:58;45.53;;;26.47;;
14121;SDS011;7139;48.114;11.442;2022-12-10T01:42:25;42.10;;;27.43;;
14121;SDS011;7139;48.114;11.442;2022-12-10T01:45:00;47.73;;;27.30;;
14121;SDS011;7139;48.114;11.442;2022-12-10T01:47:33;47.67;;;27.57;;
14121;SDS011;7139;48.114;11.442;2022-12-10T01:50:00;44.93;;;27.10;;
14121;SDS011;7139;48.114;11.442;2022-12-10T01:52:28;43.37;;;27.27;;
14121;SDS011;7139;48.114;11.442;2022-12-10T01:54:55;42.60;;;25.53;;
14121;SDS011;7139;48.114;11.442;2022-12-10T01:57:22;47.90;;;26.80;;
14121;SDS011;7139;48.114;11.442;2022-12-10T01:59:52;46.53;;;27.63;;
14121;SDS011;7139;48.114;11.442;2022-12-10T02:02:24;45.53;;;26.90;;
14121;SDS011;7139;48.114;11.442;2022-12-10T02:05:04;47.40;;;27.03;;
14121;SDS011;7139;48.114;11.442;2022-12-10T02:07:43;45.73;;;26.30;;
14121;SDS011;7139;48.114;11.442;2022-12-10T02:10:21;50.63;;;26.83;;
14121;SDS011;7139;48.114;11.442;2022-12-10T02:12:57;42.87;;;25.47;;
14121;SDS011;7139;48.114;11.442;2022-12-10T02:15:31;43.23;;;24.90;;
14121;SDS011;7139;48.114;11.442;2022-12-10T02:18:03;42.20;;;25.10;;
14121;SDS011;7139;48.114;11.442;2022-12-10T02:20:35;44.90;;;26.37;;
14121;SDS011;7139;48.114;11.442;2022-12-10T02:23:05;48.70;;;27.03;;
14121;SDS011;7139;48.114;11.442;2022-12-10T02:25:36;46.73;;;26.47;;
14121;SDS011;7139;48.114;11.442;2022-12-10T02:28:09;39.83;;;24.67;;
14121;SDS011;7139;48.114;11.442;2022-12-10T02:30:41;42.10;;;25.13;;
14121;SDS011;7139;48.114;11.442;2022-12-10T02:33:09;39.47;;;23.93;;
14121;SDS011;7139;48.114;11.442;2022-12-10T02:35:39;34.93;;;23.23;;
14121;SDS011;7139;48.114;11.442;2022-12-10T02:38:09;42.57;;;25.43;;
14121;SDS011;7139;48.114;11.442;2022-12-10T02:40:39;36.47;;;23.07;;
14121;SDS011;7139;48.114;11.442;2022-12-10T02:43:12;33.83;;;22.33;;
14121;SDS011;7139;48.114;11.442;2022-12-10T02:45:41;35.60;;;23.63;;
14121;SDS011;7139;48.114;11.442;2022-12-10T02:48:09;31.33;;;22.37;;
14121;SDS011;7139;48.114;11.442;2022-12-10T02:50:38;33.03;;;22.07;;
14121;SDS011;7139;48.114;11.442;2022-12-10T02:53:04;28.70;;;21.03;;
14121;SDS011;7139;48.114;11.442;2022-12-10T02:55:35;30.17;;;21.40;;
14121;SDS011;7139;48.114;11.442;2022-12-10T02:58:14;32.73;;;21.23;;
14121;SDS011;7139;48.114;11.442;2022-12-10T03:00:50;31.20;;;22.03;;
14121;SDS011;7139;48.114;11.442;2022-12-10T03:03:30;31.30;;;21.40;;
14121;SDS011;7139;48.114;11.442;2022-12-10T03:06:05;28.83;;;20.57;;
14121;SDS011;7139;48.114;11.442;2022-12-10T03:08:38;28.07;;;20.50;;
14121;SDS011;7139;48.114;11.442;2022-12-10T03:11:08;30.20;;;21.63;;
14121;SDS011;7139;48.114;11.442;2022-12-10T03:13:39;27.87;;;20.73;;
14121;SDS011;7139;48.114;11.442;2022-12-10T03:16:12;29.83;;;21.67;;
14121;SDS011;7139;48.114;11.442;2022-12-10T03:18:41;25.40;;;19.40;;
14121;SDS011;7139;48.114;11.442;2022-12-10T03:21:10;24.33;;;18.53;;
14121;SDS011;7139;48.114;11.442;2022-12-10T03:23:39;28.63;;;19.80;;
14121;SDS011;7139;48.114;11.442;2022-12-10T03:26:09;25.87;;;19.53;;
14121;SDS011;7139;48.114;11.442;2022-12-10T03:28:37;25.97;;;19.47;;
14121;SDS011;7139;48.114;11.442;2022-12-10T03:31:08;27.37;;;19.47;;
14121;SDS011;7139;48.114;11.442;2022-12-10T03:33:40;26.97;;;19.83;;
14121;SDS011;7139;48.114;11.442;2022-12-10T03:36:07;27.87;;;19.80;;
14121;SDS011;7139;48.114;11.442;2022-12-10T03:38:35;25.30;;;19.27;;
14121;SDS011;7139;48.114;11.442;2022-12-10T03:41:03;26.43;;;20.13;;
14121;SDS011;7139;48.114;11.442;2022-12-10T03:43:30;26.23;;;19.03;;
14121;SDS011;7139;48.114;11.442;2022-12-10T03:45:57;28.10;;;19.57;;
14121;SDS011;7139;48.114;11.442;2022-12-10T03:48:24;28.73;;;20.03;;
14121;SDS011;7139;48.114;11.442;2022-12-10T03:50:52;27.77;;;20.43;;
14121;SDS011;7139;48.114;11.442;2022-12-10T03:53:19;30.87;;;21.27;;
14121;SDS011;7139;48.114;11.442;2022-12-10T03:55:46;30.23;;;21.27;;
14121;SDS011;7139;48.114;11.442;2022-12-10T03:58:12;28.23;;;20.23;;
14121;SDS011;7139;48.114;11.442;2022-12-10T04:00:39;31.40;;;21.50;;
14121;SDS011;7139;48.114;11.442;2022-12-10T04:03:06;30.60;;;21.83;;
14121;SDS011;7139;48.114;11.442;2022-12-10T04:05:33;30.93;;;21.17;;
14121;SDS011;7139;48.114;11.442;2022-12-10T04:08:01;31.70;;;21.87;;
14121;SDS011;7139;48.114;11.442;2022-12-10T04:10:27;34.87;;;23.60;;
14121;SDS011;7139;48.114;11.442;2022-12-10T04:12:54;34.17;;;22.10;;
14121;SDS011;7139;48.114;11.442;2022-12-10T04:15:37;34.50;;;23.07;;
14121;SDS011;7139;48.114;11.442;2022-12-10T04:18:22;34.53;;;21.40;;
14121;SDS011;7139;48.114;11.442;2022-12-10T04:20:49;37.63;;;24.57;;
14121;SDS011;7139;48.114;11.442;2022-12-10T04:23:34;35.60;;;22.97;;
14121;SDS011;7139;48.114;11.442;2022-12-10T04:26:19;33.20;;;22.03;;
14121;SDS011;7139;48.114;11.442;2022-12-10T04:29:02;34.50;;;22.73;;
14121;SDS011;7139;48.114;11.442;2022-12-10T04:31:29;35.03;;;23.90;;
14121;SDS011;7139;48.114;11.442;2022-12-10T04:33:56;36.43;;;23.63;;
14121;SDS011;7139;48.114;11.442;2022-12-10T04:36:23;38.43;;;23.63;;
14121;SDS011;7139;48.114;11.442;2022-12-10T04:38:51;37.23;;;23.33;;
14121;SDS011;7139;48.114;11.442;2022-12-10T04:41:18;37.20;;;23.63;;
14121;SDS011;7139;48.114;11.442;2022-12-10T04:43:44;38.90;;;24.27;;
14121;SDS011;7139;48.114;11.442;2022-12-10T04:46:11;36.10;;;24.03;;
14121;SDS011;7139;48.114;11.442;2022-12-10T04:48:38;35.07;;;23.87;;
14121;SDS011;7139;48.114;11.442;2022-12-10T04:51:05;37.63;;;24.70;;
14121;SDS011;7139;48.114;11.442;2022-12-10T04:53:31;39.43;;;27.13;;
14121;SDS011;7139;48.114;11.442;2022-12-10T04:55:59;39.77;;;26.53;;
14121;SDS011;7139;48.114;11.442;2022-12-10T04:58:26;39.53;;;25.83;;
14121;SDS011;7139;48.114;11.442;2022-12-10T05:01:00;37.17;;;25.30;;
14121;SDS011;7139;48.114;11.442;2022-12-10T05:03:27;35.23;;;24.17;;
14121;SDS011;7139;48.114;11.442;2022-12-10T05:05:54;39.00;;;25.83;;
14121;SDS011;7139;48.114;11.442;2022-12-10T05:08:21;35.43;;;24.37;;
14121;SDS011;7139;48.114;11.442;2022-12-10T05:10:48;40.80;;;24.37;;
14121;SDS011;7139;48.114;11.442;2022-12-10T05:13:16;38.57;;;26.63;;
14121;SDS011;7139;48.114;11.442;2022-12-10T05:15:43;42.00;;;26.63;;
14121;SDS011;7139;48.114;11.442;2022-12-10T05:18:09;40.37;;;25.43;;
14121;SDS011;7139;48.114;11.442;2022-12-10T05:20:36;41.30;;;25.80;;
14121;SDS011;7139;48.114;11.442;2022-12-10T05:23:03;35.63;;;24.53;;
14121;SDS011;7139;48.114;11.442;2022-12-10T05:25:43;40.67;;;25.30;;
14121;SDS011;7139;48.114;11.442;2022-12-10T05:28:19;39.30;;;25.10;;
14121;SDS011;7139;48.114;11.442;2022-12-10T05:30:47;41.13;;;25.90;;
14121;SDS011;7139;48.114;11.442;2022-12-10T05:33:14;38.17;;;23.37;;
14121;SDS011;7139;48.114;11.442;2022-12-10T05:35:41;39.63;;;25.87;;
14121;SDS011;7139;48.114;11.442;2022-12-10T05:38:08;36.10;;;23.57;;
14121;SDS011;7139;48.114;11.442;2022-12-10T05:40:35;37.87;;;24.33;;
14121;SDS011;7139;48.114;11.442;2022-12-10T05:43:02;37.03;;;24.60;;
14121;SDS011;7139;48.114;11.442;2022-12-10T05:45:32;38.20;;;24.33;;
14121;SDS011;7139;48.114;11.442;2022-12-10T05:47:59;39.10;;;25.83;;
14121;SDS011;7139;48.114;11.442;2022-12-10T05:50:26;38.53;;;25.20;;
14121;SDS011;7139;48.114;11.442;2022-12-10T05:52:53;36.90;;;24.83;;
14121;SDS011;7139;48.114;11.442;2022-12-10T05:55:20;37.67;;;25.80;;
14121;SDS011;7139;48.114;11.442;2022-12-10T05:57:47;38.67;;;27.13;;
14121;SDS011;7139;48.114;11.442;2022-12-10T06:00:14;36.40;;;25.30;;
14121;SDS011;7139;48.114;11.442;2022-12-10T06:02:42;36.50;;;25.27;;
14121;SDS011;7139;48.114;11.442;2022-12-10T06:05:09;38.33;;;26.33;;
14121;SDS011;7139;48.114;11.442;2022-12-10T06:07:36;37.77;;;25.53;;
14121;SDS011;7139;48.114;11.442;2022-12-10T06:10:02;32.77;;;23.83;;
14121;SDS011;7139;48.114;11.442;2022-12-10T06:12:30;35.23;;;23.97;;
14121;SDS011;7139;48.114;11.442;2022-12-10T06:14:56;33.27;;;24.17;;
14121;SDS011;7139;48.114;11.442;2022-12-10T06:17:23;32.27;;;23.60;;
14121;SDS011;7139;48.114;11.442;2022-12-10T06:19:51;34.93;;;24.50;;
14121;SDS011;7139;48.114;11.442;2022-12-10T06:22:18;35.07;;;24.33;;
14121;SDS011;7139;48.114;11.442;2022-12-10T06:24:45;35.93;;;24.70;;
14121;SDS011;7139;48.114;11.442;2022-12-10T06:27:11;33.80;;;23.67;;
14121;SDS011;7139;48.114;11.442;2022-12-10T06:29:39;38.50;;;23.60;;
14121;SDS011;7139;48.114;11.442;2022-12-10T06:32:06;35.23;;;23.57;;
14121;SDS011;7139;48.114;11.442;2022-12-10T06:34:33;34.20;;;23.87;;
14121;SDS011;7139;48.114;11.442;2022-12-10T06:37:01;33.70;;;24.50;;
14121;SDS011;7139;48.114;11.442;2022-12-10T06:39:27;34.50;;;24.13;;
14121;SDS011;7139;48.114;11.442;2022-12-10T06:41:54;34.30;;;24.97;;
14121;SDS011;7139;48.114;11.442;2022-12-10T06:44:21;36.87;;;25.30;;
14121;SDS011;7139;48.114;11.442;2022-12-10T06:46:48;36.63;;;24.70;;
14121;SDS011;7139;48.114;11.442;2022-12-10T06:49:14;36.23;;;24.90;;
14121;SDS011;7139;48.114;11.442;2022-12-10T06:51:41;35.97;;;23.93;;
14121;SDS011;7139;48.114;11.442;2022-12-10T06:54:09;34.77;;;24.10;;
14121;SDS011;7139;48.114;11.442;2022-12-10T06:56:36;34.93;;;24.17;;
14121;SDS011;7139;48.114;11.442;2022-12-10T06:59:03;37.57;;;24.77;;
14121;SDS011;7139;48.114;11.442;2022-12-10T07:01:31;37.43;;;24.30;;
14121;SDS011;7139;48.114;11.442;2022-12-10T07:03:58;34.77;;;24.30;;
14121;SDS011;7139;48.114;11.442;2022-12-10T07:06:25;35.03;;;25.03;;
14121;SDS011;7139;48.114;11.442;2022-12-10T07:08:53;39.30;;;25.60;;
14121;SDS011;7139;48.114;11.442;2022-12-10T07:11:22;37.17;;;24.97;;
14121;SDS011;7139;48.114;11.442;2022-12-10T07:13:50;30.60;;;22.80;;
14121;SDS011;7139;48.114;11.442;2022-12-10T07:16:17;33.77;;;23.97;;
14121;SDS011;7139;48.114;11.442;2022-12-10T07:18:46;34.63;;;23.07;;
14121;SDS011;7139;48.114;11.442;2022-12-10T07:21:15;34.20;;;22.77;;
14121;SDS011;7139;48.114;11.442;2022-12-10T07:23:44;30.90;;;22.17;;
14121;SDS011;7139;48.114;11.442;2022-12-10T07:26:11;29.90;;;21.47;;
14121;SDS011;7139;48.114;11.442;2022-12-10T07:28:39;31.53;;;22.80;;
14121;SDS011;7139;48.114;11.442;2022-12-10T07:31:07;31.60;;;22.10;;
14121;SDS011;7139;48.114;11.442;2022-12-10T07:33:35;31.03;;;22.60;;
14121;SDS011;7139;48.114;11.442;2022-12-10T07:36:03;31.33;;;22.90;;
14121;SDS011;7139;48.114;11.442;2022-12-10T07:38:30;31.40;;;22.53;;
14121;SDS011;7139;48.114;11.442;2022-12-10T07:40:57;35.33;;;24.70;;
14121;SDS011;7139;48.114;11.442;2022-12-10T07:43:24;34.00;;;24.37;;
14121;SDS011;7139;48.114;11.442;2022-12-10T07:45:52;36.40;;;24.13;;
14121;SDS011;7139;48.114;11.442;2022-12-10T07:48:19;29.67;;;23.00;;
14121;SDS011;7139;48.114;11.442;2022-12-10T07:50:46;33.77;;;23.87;;
14121;SDS011;7139;48.114;11.442;2022-12-10T07:53:21;32.57;;;23.23;;
14121;SDS011;7139;48.114;11.442;2022-12-10T07:55:47;31.97;;;22.80;;
14121;SDS011;7139;48.114;11.442;2022-12-10T07:58:14;32.07;;;22.17;;
14121;SDS011;7139;48.114;11.442;2022-12-10T08:00:41;36.17;;;23.40;;
14121;SDS011;7139;48.114;11.442;2022-12-10T08:03:09;35.90;;;24.23;;
14121;SDS011;7139;48.114;11.442;2022-12-10T08:05:36;36.70;;;25.80;;
14121;SDS011;7139;48.114;11.442;2022-12-10T08:08:03;33.97;;;22.97;;
14121;SDS011;7139;48.114;11.442;2022-12-10T08:10:30;34.77;;;24.43;;
14121;SDS011;7139;48.114;11.442;2022-12-10T08:12:59;34.40;;;22.80;;
14121;SDS011;7139;48.114;11.442;2022-12-10T08:15:26;35.90;;;23.93;;
14121;SDS011;7139;48.114;11.442;2022-12-10T08:17:53;36.23;;;25.93;;
14121;SDS011;7139;48.114;11.442;2022-12-10T08:20:21;38.67;;;27.63;;
14121;SDS011;7139;48.114;11.442;2022-12-10T08:22:48;37.63;;;27.13;;
14121;SDS011;7139;48.114;11.442;2022-12-10T08:25:15;34.70;;;25.83;;
14121;SDS011;7139;48.114;11.442;2022-12-10T08:27:42;33.93;;;24.10;;
14121;SDS011;7139;48.114;11.442;2022-12-10T08:30:09;32.73;;;22.87;;
14121;SDS011;7139;48.114;11.442;2022-12-10T08:32:36;30.90;;;22.17;;
14121;SDS011;7139;48.114;11.442;2022-12-10T08:35:03;29.80;;;22.27;;
14121;SDS011;7139;48.114;11.442;2022-12-10T08:37:32;30.23;;;22.80;;
14121;SDS011;7139;48.114;11.442;2022-12-10T08:39:59;31.37;;;23.30;;
14121;SDS011;7139;48.114;11.442;2022-12-10T08:42:25;33.93;;;23.53;;
14121;SDS011;7139;48.114;11.442;2022-12-10T08:44:52;32.43;;;22.10;;
14121;SDS011;7139;48.114;11.442;2022-12-10T08:47:19;31.47;;;21.73;;
14121;SDS011;7139;48.114;11.442;2022-12-10T08:49:46;31.93;;;23.13;;
14121;SDS011;7139;48.114;11.442;2022-12-10T08:52:12;30.77;;;22.63;;
14121;SDS011;7139;48.114;11.442;2022-12-10T08:54:41;35.70;;;23.87;;
14121;SDS011;7139;48.114;11.442;2022-12-10T08:57:07;35.03;;;24.77;;
14121;SDS011;7139;48.114;11.442;2022-12-10T08:59:34;35.97;;;25.40;;
14121;SDS011;7139;48.114;11.442;2022-12-10T09:02:01;32.00;;;23.00;;
14121;SDS011;7139;48.114;11.442;2022-12-10T09:04:28;34.73;;;24.40;;
14121;SDS011;7139;48.114;11.442;2022-12-10T09:06:54;31.70;;;22.80;;
14121;SDS011;7139;48.114;11.442;2022-12-10T09:09:21;34.40;;;22.80;;
14121;SDS011;7139;48.114;11.442;2022-12-10T09:11:49;33.57;;;22.80;;
14121;SDS011;7139;48.114;11.442;2022-12-10T09:14:16;32.37;;;23.53;;
14121;SDS011;7139;48.114;11.442;2022-12-10T09:16:43;32.27;;;22.80;;
14121;SDS011;7139;48.114;11.442;2022-12-10T09:19:09;33.17;;;24.77;;
14121;SDS011;7139;48.114;11.442;2022-12-10T09:21:36;34.63;;;25.10;;
14121;SDS011;7139;48.114;11.442;2022-12-10T09:24:03;34.93;;;25.17;;
14121;SDS011;7139;48.114;11.442;2022-12-10T09:26:30;31.77;;;23.23;;
14121;SDS011;7139;48.114;11.442;2022-12-10T09:28:59;34.37;;;23.47;;
14121;SDS011;7139;48.114;11.442;2022-12-10T09:31:26;32.00;;;21.93;;
14121;SDS011;7139;48.114;11.442;2022-12-10T09:33:53;29.97;;;21.93;;
14121;SDS011;7139;48.114;11.442;2022-12-10T09:36:20;29.63;;;21.73;;
14121;SDS011;7139;48.114;11.442;2022-12-10T09:38:48;33.07;;;22.03;;
14121;SDS011;7139;48.114;11.442;2022-12-10T09:41:22;30.90;;;21.93;;
14121;SDS011;7139;48.114;11.442;2022-12-10T09:44:06;32.17;;;21.80;;
14121;SDS011;7139;48.114;11.442;2022-12-10T09:46:40;30.37;;;21.90;;
14121;SDS011;7139;48.114;11.442;2022-12-10T09:49:16;30.63;;;21.40;;
14121;SDS011;7139;48.114;11.442;2022-12-10T09:51:49;30.37;;;22.73;;
14121;SDS011;7139;48.114;11.442;2022-12-10T09:54:22;30.53;;;22.27;;
14121;SDS011;7139;48.114;11.442;2022-12-10T09:56:52;32.87;;;22.13;;
14121;SDS011;7139;48.114;11.442;2022-12-10T09:59:23;34.13;;;23.93;;
14121;SDS011;7139;48.114;11.442;2022-12-10T10:01:58;32.20;;;23.17;;
14121;SDS011;7139;48.114;11.442;2022-12-10T10:04:29;33.40;;;23.10;;
14121;SDS011;7139;48.114;11.442;2022-12-10T10:06:55;32.63;;;23.03;;
14121;SDS011;7139;48.114;11.442;2022-12-10T10:09:23;35.43;;;24.20;;
14121;SDS011;7139;48.114;11.442;2022-12-10T10:11:50;34.07;;;23.07;;
14121;SDS011;7139;48.114;11.442;2022-12-10T10:14:18;31.77;;;22.27;;
14121;SDS011;7139;48.114;11.442;2022-12-10T10:16:53;33.83;;;22.87;;
14121;SDS011;7139;48.114;11.442;2022-12-10T10:19:24;29.10;;;21.73;;
14121;SDS011;7139;48.114;11.442;2022-12-10T10:21:53;33.53;;;21.93;;
14121;SDS011;7139;48.114;11.442;2022-12-10T10:24:20;32.40;;;21.73;;
14121;SDS011;7139;48.114;11.442;2022-12-10T10:26:50;29.80;;;20.63;;
14121;SDS011;7139;48.114;11.442;2022-12-10T10:29:19;32.13;;;21.73;;
14121;SDS011;7139;48.114;11.442;2022-12-10T10:32:09;34.40;;;23.10;;
14121;SDS011;7139;48.114;11.442;2022-12-10T10:34:39;37.40;;;25.20;;
14121;SDS011;7139;48.114;11.442;2022-12-10T10:37:06;36.77;;;23.93;;
14121;SDS011;7139;48.114;11.442;2022-12-10T10:39:46;35.77;;;22.87;;
14121;SDS011;7139;48.114;11.442;2022-12-10T10:42:18;33.70;;;22.50;;
14121;SDS011;7139;48.114;11.442;2022-12-10T10:44:53;34.23;;;22.33;;
14121;SDS011;7139;48.114;11.442;2022-12-10T10:47:24;35.37;;;23.53;;
14121;SDS011;7139;48.114;11.442;2022-12-10T10:53:31;35.30;;;22.77;;
14121;SDS011;7139;48.114;11.442;2022-12-10T10:56:00;36.73;;;23.83;;
14121;SDS011;7139;48.114;11.442;2022-12-10T10:58:33;34.13;;;22.47;;
14121;SDS011;7139;48.114;11.442;2022-12-10T11:01:02;35.83;;;23.07;;
14121;SDS011;7139;48.114;11.442;2022-12-10T11:03:32;37.60;;;24.20;;
14121;SDS011;7139;48.114;11.442;2022-12-10T11:06:00;36.23;;;22.97;;
14121;SDS011;7139;48.114;11.442;2022-12-10T11:08:30;34.57;;;22.27;;
14121;SDS011;7139;48.114;11.442;2022-12-10T11:10:58;35.93;;;23.33;;
14121;SDS011;7139;48.114;11.442;2022-12-10T11:13:29;32.63;;;21.67;;
14121;SDS011;7139;48.114;11.442;2022-12-10T11:15:58;33.60;;;22.77;;
14121;SDS011;7139;48.114;11.442;2022-12-10T11:18:31;34.60;;;22.37;;
14121;SDS011;7139;48.114;11.442;2022-12-10T11:21:01;33.33;;;23.07;;
14121;SDS011;7139;48.114;11.442;2022-12-10T11:23:30;35.40;;;23.07;;
14121;SDS011;7139;48.114;11.442;2022-12-10T11:26:07;32.77;;;22.53;;
14121;SDS011;7139;48.114;11.442;2022-12-10T11:28:53;33.47;;;22.60;;
14121;SDS011;7139;48.114;11.442;2022-12-10T11:31:47;34.80;;;23.60;;
14121;SDS011;7139;48.114;11.442;2022-12-10T11:34:26;31.67;;;21.40;;
14121;SDS011;7139;48.114;11.442;2022-12-10T11:37:03;31.23;;;21.90;;
14121;SDS011;7139;48.114;11.442;2022-12-10T11:39:50;30.40;;;21.37;;
14121;SDS011;7139;48.114;11.442;2022-12-10T11:42:29;34.97;;;22.97;;
14121;SDS011;7139;48.114;11.442;2022-12-10T11:45:07;32.30;;;22.23;;
14121;SDS011;7139;48.114;11.442;2022-12-10T11:47:44;32.37;;;22.37;;
14121;SDS011;7139;48.114;11.442;2022-12-10T11:50:26;37.83;;;24.27;;
14121;SDS011;7139;48.114;11.442;2022-12-10T11:53:03;33.87;;;23.80;;
14121;SDS011;7139;48.114;11.442;2022-12-10T11:55:44;35.80;;;24.20;;
14121;SDS011;7139;48.114;11.442;2022-12-10T11:58:23;32.83;;;23.37;;
14121;SDS011;7139;48.114;11.442;2022-12-10T12:01:08;34.97;;;23.57;;
14121;SDS011;7139;48.114;11.442;2022-12-10T12:03:52;32.63;;;23.00;;
14121;SDS011;7139;48.114;11.442;2022-12-10T12:06:45;35.60;;;23.53;;
14121;SDS011;7139;48.114;11.442;2022-12-10T12:09:29;33.03;;;23.13;;
14121;SDS011;7139;48.114;11.442;2022-12-10T12:12:11;35.43;;;24.23;;
14121;SDS011;7139;48.114;11.442;2022-12-10T12:14:50;34.43;;;23.67;;
14121;SDS011;7139;48.114;11.442;2022-12-10T12:17:22;34.13;;;23.20;;
14121;SDS011;7139;48.114;11.442;2022-12-10T12:19:52;35.80;;;23.43;;
14121;SDS011;7139;48.114;11.442;2022-12-10T12:22:24;35.97;;;23.40;;
14121;SDS011;7139;48.114;11.442;2022-12-10T12:24:54;35.10;;;23.97;;
14121;SDS011;7139;48.114;11.442;2022-12-10T12:27:24;34.90;;;24.40;;
14121;SDS011;7139;48.114;11.442;2022-12-10T12:29:58;36.47;;;24.50;;
14121;SDS011;7139;48.114;11.442;2022-12-10T12:32:33;33.10;;;23.53;;
14121;SDS011;7139;48.114;11.442;2022-12-10T12:35:10;35.93;;;24.53;;
14121;SDS011;7139;48.114;11.442;2022-12-10T12:37:43;33.50;;;24.40;;
14121;SDS011;7139;48.114;11.442;2022-12-10T12:40:15;32.33;;;23.73;;
14121;SDS011;7139;48.114;11.442;2022-12-10T12:42:54;40.70;;;28.00;;
14121;SDS011;7139;48.114;11.442;2022-12-10T12:45:28;33.77;;;24.07;;
14121;SDS011;7139;48.114;11.442;2022-12-10T12:48:00;34.20;;;24.30;;
14121;SDS011;7139;48.114;11.442;2022-12-10T12:50:37;35.70;;;24.77;;
14121;SDS011;7139;48.114;11.442;2022-12-10T12:53:11;36.03;;;26.37;;
14121;SDS011;7139;48.114;11.442;2022-12-10T12:55:43;38.53;;;27.80;;
14121;SDS011;7139;48.114;11.442;2022-12-10T12:58:15;35.87;;;24.90;;
14121;SDS011;7139;48.114;11.442;2022-12-10T13:00:50;34.60;;;25.37;;
14121;SDS011;7139;48.114;11.442;2022-12-10T13:03:27;33.50;;;24.80;;
14121;SDS011;7139;48.114;11.442;2022-12-10T13:06:11;34.73;;;24.70;;
14121;SDS011;7139;48.114;11.442;2022-12-10T13:08:44;37.27;;;25.57;;
14121;SDS011;7139;48.114;11.442;2022-12-10T13:11:18;35.07;;;24.97;;
14121;SDS011;7139;48.114;11.442;2022-12-10T13:14:14;33.20;;;24.87;;
14121;SDS011;7139;48.114;11.442;2022-12-10T13:17:24;35.80;;;25.23;;
14121;SDS011;7139;48.114;11.442;2022-12-10T13:20:04;36.63;;;25.43;;
14121;SDS011;7139;48.114;11.442;2022-12-10T13:22:57;37.07;;;24.70;;
14121;SDS011;7139;48.114;11.442;2022-12-10T13:25:40;33.07;;;23.83;;
14121;SDS011;7139;48.114;11.442;2022-12-10T13:28:22;36.63;;;25.43;;
14121;SDS011;7139;48.114;11.442;2022-12-10T13:31:07;35.40;;;25.00;;
14121;SDS011;7139;48.114;11.442;2022-12-10T13:33:46;37.10;;;26.83;;
14121;SDS011;7139;48.114;11.442;2022-12-10T13:36:23;33.83;;;25.13;;
14121;SDS011;7139;48.114;11.442;2022-12-10T13:38:56;35.77;;;24.50;;
14121;SDS011;7139;48.114;11.442;2022-12-10T13:41:40;34.00;;;24.63;;
14121;SDS011;7139;48.114;11.442;2022-12-10T13:44:46;33.50;;;24.60;;
14121;SDS011;7139;48.114;11.442;2022-12-10T13:47:24;32.87;;;23.70;;
14121;SDS011;7139;48.114;11.442;2022-12-10T13:49:53;33.63;;;23.63;;
14121;SDS011;7139;48.114;11.442;2022-12-10T13:52:23;32.23;;;22.60;;
14121;SDS011;7139;48.114;11.442;2022-12-10T13:55:02;33.07;;;23.63;;
14121;SDS011;7139;48.114;11.442;2022-12-10T13:57:49;33.67;;;23.60;;
14121;SDS011;7139;48.114;11.442;2022-12-10T14:00:31;32.80;;;22.90;;
14121;SDS011;7139;48.114;11.442;2022-12-10T14:03:09;40.00;;;28.27;;
14121;SDS011;7139;48.114;11.442;2022-12-10T14:05:54;42.50;;;32.03;;
14121;SDS011;7139;48.114;11.442;2022-12-10T14:08:30;43.00;;;31.83;;
14121;SDS011;7139;48.114;11.442;2022-12-10T14:11:02;37.47;;;28.00;;
14121;SDS011;7139;48.114;11.442;2022-12-10T14:13:33;43.50;;;34.47;;
14121;SDS011;7139;48.114;11.442;2022-12-10T14:16:04;37.13;;;26.73;;
14121;SDS011;7139;48.114;11.442;2022-12-10T14:18:35;34.87;;;25.70;;
14121;SDS011;7139;48.114;11.442;2022-12-10T14:21:05;38.80;;;27.43;;
14121;SDS011;7139;48.114;11.442;2022-12-10T14:23:33;35.10;;;25.93;;
14121;SDS011;7139;48.114;11.442;2022-12-10T14:26:03;35.90;;;25.87;;
14121;SDS011;7139;48.114;11.442;2022-12-10T14:28:36;37.30;;;27.63;;
14121;SDS011;7139;48.114;11.442;2022-12-10T14:31:05;37.77;;;27.80;;
14121;SDS011;7139;48.114;11.442;2022-12-10T14:33:36;42.43;;;31.63;;
14121;SDS011;7139;48.114;11.442;2022-12-10T14:36:04;42.17;;;29.77;;
14121;SDS011;7139;48.114;11.442;2022-12-10T14:38:31;41.33;;;30.03;;
14121;SDS011;7139;48.114;11.442;2022-12-10T14:41:00;37.93;;;28.07;;
14121;SDS011;7139;48.114;11.442;2022-12-10T14:43:30;38.70;;;27.77;;
14121;SDS011;7139;48.114;11.442;2022-12-10T14:46:02;40.33;;;28.70;;